This is the latest recevied weather packets stored in our database for station/object NQ9F. If no packets are shown the sender has not sent any weather packets the latest 1 day(s).
| Time | Temp. | Humidity | Pressure | Rain* | Wind** | Luminosity | Snow |
|---|---|---|---|---|---|---|---|
| 1836274850 | 25.56° C | 70% | 1016.5 hPa | 0 mm | 2.68 m/s, 145° | 0 W/m² | - |
| 1836274548 | 26.11° C | 69% | 1016.6 hPa | 0 mm | 2.24 m/s, 163° | 0 W/m² | - |
| 1836274402 | 25.56° C | 71% | 1016.5 hPa | 0 mm | 2.68 m/s, 155° | 0 W/m² | - |
| 1836274246 | 26.11° C | 69% | 1016.5 hPa | 0 mm | 2.24 m/s, 161° | 0 W/m² | - |
| 1836273945 | 26.11° C | 69% | 1016.5 hPa | 0 mm | 1.79 m/s, 162° | 0 W/m² | - |
| 1778060234 | 12.78° C | 82% | 1011.3 hPa | 0 mm | 3.13 m/s, 13° | 0 W/m² | - |
| 1778059930 | 12.78° C | 82% | 1011.4 hPa | 0 mm | 6.26 m/s, 359° | 0 W/m² | - |
| 1778059628 | 12.78° C | 82% | 1011 hPa | 0 mm | 4.02 m/s, 7° | 0 W/m² | - |
| 1778059325 | 12.78° C | 82% | 1011.4 hPa | 0 mm | 3.58 m/s, 0° | 0 W/m² | - |
| 1778059023 | 12.78° C | 82% | 1011.1 hPa | 0 mm | 1.79 m/s, 352° | 0 W/m² | - |
| 1778058720 | 12.78° C | 82% | 1011.2 hPa | 0 mm | 3.13 m/s, 343° | 0 W/m² | - |
| 1778058418 | 12.78° C | 83% | 1011 hPa | 0 mm | 4.47 m/s, 3° | 0 W/m² | - |
| 1778058114 | 12.78° C | 83% | 1010.9 hPa | 0 mm | 2.68 m/s, 354° | 0 W/m² | - |
| 1778057811 | 12.78° C | 83% | 1011.2 hPa | 0 mm | 3.13 m/s, 1° | 0 W/m² | - |
| 1778057507 | 13.33° C | 82% | 1011 hPa | 0 mm | 2.24 m/s, 354° | 0 W/m² | - |
| 1778057204 | 13.33° C | 83% | 1011.3 hPa | 0 mm | 2.68 m/s, 0° | 0 W/m² | - |
| 1778056901 | 12.78° C | 82% | 1010.8 hPa | 0 mm | 2.24 m/s, 2° | 0 W/m² | - |
| 1778056598 | 12.78° C | 82% | 1010.7 hPa | 0 mm | 2.24 m/s, 4° | 0 W/m² | - |
| 1778056296 | 13.33° C | 82% | 1010.8 hPa | 0 mm | 1.34 m/s, 4° | 0 W/m² | - |
| 1778055992 | 13.33° C | 82% | 1010.7 hPa | 0 mm | 2.68 m/s, 12° | 0 W/m² | - |
| 1778055688 | 13.33° C | 82% | 1010.7 hPa | 0 mm | 5.36 m/s, 0° | 0 W/m² | - |
| 1778055386 | 13.33° C | 82% | 1010.7 hPa | 0 mm | 4.47 m/s, 13° | 0 W/m² | - |
| 1778055084 | 13.33° C | 82% | 1010.9 hPa | 0 mm | 3.13 m/s, 349° | 0 W/m² | - |
| 1778054781 | 13.33° C | 82% | 1011.1 hPa | 0 mm | 3.13 m/s, 18° | 0 W/m² | - |
| 1778054478 | 13.33° C | 82% | 1010.9 hPa | 0 mm | 3.58 m/s, 0° | 0 W/m² | - |
* Rain latest hour (hover to see other rain measurements)
** Current wind speed in m/s (hover to see current wind gust speed)